createdAt,value
2019-01-28T00:01:48.026Z,75.59
2019-01-28T00:04:19.713Z,75.67
2019-01-28T00:06:51.385Z,75.66
2019-01-28T00:09:22.948Z,75.71
2019-01-28T00:11:55.131Z,75.81
2019-01-28T00:14:26.777Z,75.88
2019-01-28T00:16:58.321Z,75.95
2019-01-28T00:19:29.971Z,76.17
2019-01-28T00:22:01.626Z,76.05
2019-01-28T00:24:33.289Z,76.04
2019-01-28T00:27:04.866Z,76.18
2019-01-28T00:29:36.511Z,75.77
2019-01-28T00:32:08.067Z,75.77
2019-01-28T00:34:39.641Z,75.76
2019-01-28T00:37:11.208Z,75.42
2019-01-28T00:39:42.852Z,75.42
2019-01-28T00:42:14.430Z,75.15
2019-01-28T00:44:45.991Z,75.15
2019-01-28T00:47:17.970Z,74.20
2019-01-28T00:49:49.537Z,74.21
2019-01-28T00:52:21.310Z,73.96
2019-01-28T00:54:52.870Z,74.22
2019-01-28T00:57:24.494Z,74.52
2019-01-28T00:59:56.145Z,74.54
2019-01-28T01:02:27.712Z,74.85
2019-01-28T01:04:59.353Z,74.52
2019-01-28T01:07:30.990Z,74.86
2019-01-28T01:10:02.827Z,74.77
2019-01-28T01:12:34.452Z,74.53
2019-01-28T01:15:07.206Z,74.77
2019-01-28T01:17:38.827Z,74.77
2019-01-28T01:20:11.672Z,74.43
2019-01-28T01:22:43.307Z,74.52
2019-01-28T01:25:15.496Z,74.37
2019-01-28T01:27:47.316Z,74.13
2019-01-28T01:30:19.239Z,74.24
2019-01-28T01:32:51.164Z,74.80
2019-01-28T01:35:22.730Z,74.55
2019-01-28T01:37:54.288Z,74.68
2019-01-28T01:40:25.859Z,74.49
2019-01-28T01:42:58.491Z,74.02
2019-01-28T01:45:30.131Z,74.31
2019-01-28T01:48:01.693Z,74.12
2019-01-28T01:50:33.324Z,74.45
2019-01-28T01:53:04.940Z,74.26
2019-01-28T01:55:36.573Z,74.22
2019-01-28T01:58:08.137Z,74.54
2019-01-28T02:00:39.700Z,74.19
2019-01-28T02:03:11.312Z,74.37
2019-01-28T02:05:42.974Z,74.29
2019-01-28T02:08:14.605Z,74.68
2019-01-28T02:10:46.252Z,74.83
2019-01-28T02:13:18.220Z,74.70
2019-01-28T02:15:49.884Z,74.72
2019-01-28T02:18:24.614Z,75.30
2019-01-28T02:20:57.113Z,75.42
2019-01-28T02:23:29.755Z,75.81
2019-01-28T02:26:01.334Z,75.92
2019-01-28T02:28:32.948Z,76.01
2019-01-28T02:31:04.542Z,76.24
2019-01-28T02:33:36.109Z,76.25
2019-01-28T02:36:07.699Z,76.39
2019-01-28T02:38:39.336Z,76.78
2019-01-28T02:41:10.992Z,76.65
2019-01-28T02:43:42.549Z,76.64
2019-01-28T02:46:14.144Z,76.71
2019-01-28T02:48:45.809Z,77.06
2019-01-28T02:51:17.460Z,77.05
2019-01-28T02:53:49.248Z,77.23
2019-01-28T02:56:21.336Z,77.28
2019-01-28T02:58:52.906Z,76.85
2019-01-28T03:01:24.501Z,76.65
2019-01-28T03:03:56.132Z,76.61
2019-01-28T03:06:27.779Z,76.87
2019-01-28T03:08:59.342Z,76.76
2019-01-28T03:11:30.915Z,76.94
2019-01-28T03:14:02.549Z,76.70
2019-01-28T03:16:34.185Z,76.92
2019-01-28T03:19:05.759Z,76.38
2019-01-28T03:21:37.322Z,76.20
2019-01-28T03:24:08.877Z,76.20
2019-01-28T03:26:40.526Z,76.20
2019-01-28T03:29:12.121Z,75.86
2019-01-28T03:31:43.785Z,76.27
2019-01-28T03:34:15.416Z,76.05
2019-01-28T03:36:47.360Z,76.07
2019-01-28T03:39:19.250Z,75.83
2019-01-28T03:41:51.198Z,75.71
2019-01-28T03:44:22.762Z,75.09
2019-01-28T03:46:54.416Z,75.06
2019-01-28T03:49:26.046Z,74.53
2019-01-28T03:51:57.979Z,74.80
2019-01-28T03:54:29.547Z,74.62
2019-01-28T03:57:01.144Z,74.36
2019-01-28T03:59:32.721Z,73.47
2019-01-28T04:02:04.334Z,73.82
2019-01-28T04:04:35.949Z,73.93
2019-01-28T04:07:07.614Z,74.48
2019-01-28T04:09:39.197Z,74.84
2019-01-28T04:12:10.774Z,75.27
2019-01-28T04:14:42.346Z,75.47
2019-01-28T04:17:14.003Z,76.01
2019-01-28T04:19:45.695Z,76.23
2019-01-28T04:22:17.371Z,76.35
2019-01-28T04:24:49.262Z,76.22
2019-01-28T04:27:21.196Z,76.42
2019-01-28T04:29:52.750Z,76.54
2019-01-28T04:32:24.324Z,76.44
2019-01-28T04:34:55.910Z,76.59
2019-01-28T04:37:27.472Z,76.75
2019-01-28T04:39:59.058Z,76.35
2019-01-28T04:42:30.631Z,76.33
2019-01-28T04:45:02.265Z,75.94
2019-01-28T04:47:34.145Z,75.73
2019-01-28T04:50:06.959Z,75.39
2019-01-28T04:52:38.598Z,74.95
2019-01-28T04:55:10.179Z,74.61
2019-01-28T04:57:42.835Z,74.44
2019-01-28T05:00:16.762Z,74.70
2019-01-28T05:02:48.426Z,74.37
2019-01-28T05:05:20.435Z,74.40
2019-01-28T05:07:52.288Z,74.12
2019-01-28T05:10:24.210Z,74.31
2019-01-28T05:12:55.797Z,74.12
2019-01-28T05:15:27.373Z,73.98
2019-01-28T05:17:58.964Z,74.05
2019-01-28T05:20:30.541Z,74.17
2019-01-28T05:23:02.192Z,74.04
2019-01-28T05:25:33.756Z,74.35
2019-01-28T05:28:05.344Z,74.45
2019-01-28T05:30:36.928Z,74.48
2019-01-28T05:33:08.809Z,74.19
2019-01-28T05:35:40.433Z,74.27
2019-01-28T05:38:11.996Z,74.65
2019-01-28T05:40:43.566Z,74.49
2019-01-28T05:43:15.201Z,74.72
2019-01-28T05:45:46.781Z,74.24
2019-01-28T05:48:18.411Z,74.26
2019-01-28T05:50:50.493Z,74.15
2019-01-28T05:53:22.364Z,74.63
2019-01-28T05:55:54.283Z,74.31
2019-01-28T05:58:25.966Z,74.46
2019-01-28T06:00:57.542Z,74.17
2019-01-28T06:03:29.127Z,73.93
2019-01-28T06:06:00.706Z,73.75
2019-01-28T06:08:32.282Z,73.43
2019-01-28T06:11:03.849Z,73.26
2019-01-28T06:13:35.503Z,73.48
2019-01-28T06:16:07.083Z,73.33
2019-01-28T06:18:38.669Z,73.44
2019-01-28T06:21:10.301Z,73.59
2019-01-28T06:23:41.879Z,73.57
2019-01-28T06:26:13.527Z,73.34
2019-01-28T06:28:45.272Z,73.51
2019-01-28T06:31:16.825Z,73.36
2019-01-28T06:33:48.384Z,73.63
2019-01-28T06:36:20.547Z,73.98
2019-01-28T06:38:52.360Z,74.02
2019-01-28T06:41:24.262Z,74.18
2019-01-28T06:43:55.844Z,73.99
2019-01-28T06:46:27.501Z,73.93
2019-01-28T06:48:59.080Z,73.64
2019-01-28T06:51:30.698Z,74.01
2019-01-28T06:54:02.255Z,74.21
2019-01-28T06:56:33.828Z,74.33
2019-01-28T06:59:05.458Z,74.00
2019-01-28T07:01:37.093Z,74.12
2019-01-28T07:04:08.670Z,74.37
2019-01-28T07:06:40.314Z,74.04
2019-01-28T07:09:11.905Z,74.11
2019-01-28T07:11:43.457Z,73.61
2019-01-28T07:14:15.060Z,73.15
2019-01-28T07:16:46.707Z,72.90
2019-01-28T07:19:18.469Z,72.73
2019-01-28T07:21:50.503Z,72.76
2019-01-28T07:24:22.296Z,72.93
2019-01-28T07:26:54.230Z,73.16
2019-01-28T07:29:25.802Z,73.48
2019-01-28T07:31:57.369Z,73.35
2019-01-28T07:34:29.020Z,73.33
2019-01-28T07:37:00.593Z,73.31
2019-01-28T07:39:32.173Z,73.10
2019-01-28T07:42:03.752Z,73.12
2019-01-28T07:44:35.399Z,73.48
2019-01-28T07:47:06.964Z,73.86
2019-01-28T07:49:38.533Z,73.73
2019-01-28T07:52:10.102Z,74.05
2019-01-28T07:54:41.697Z,73.69
2019-01-28T07:57:13.464Z,73.69
2019-01-28T07:59:45.158Z,73.84
2019-01-28T08:02:17.092Z,73.81
2019-01-28T08:04:49.302Z,73.28
2019-01-28T08:07:21.594Z,73.38
2019-01-28T08:09:53.216Z,73.01
2019-01-28T08:12:24.789Z,72.99
2019-01-28T08:14:56.417Z,72.77
2019-01-28T08:17:28.957Z,73.69
2019-01-28T08:20:00.607Z,73.04
2019-01-28T08:22:32.255Z,72.71
2019-01-28T08:25:03.909Z,73.45
2019-01-28T08:27:35.559Z,73.64
2019-01-28T08:30:08.741Z,73.38
2019-01-28T08:32:40.362Z,73.07
2019-01-28T08:35:12.020Z,73.01
2019-01-28T08:37:43.647Z,73.57
2019-01-28T08:40:15.336Z,73.23
2019-01-28T08:42:47.377Z,73.33
2019-01-28T08:45:19.347Z,72.89
2019-01-28T08:47:51.392Z,73.15
2019-01-28T08:50:23.679Z,72.78
2019-01-28T08:52:55.300Z,72.33
2019-01-28T08:55:27.263Z,71.91
2019-01-28T08:57:58.885Z,72.63
2019-01-28T09:00:35.784Z,72.50
2019-01-28T09:03:07.424Z,72.15
2019-01-28T09:05:38.989Z,72.50
2019-01-28T09:08:10.654Z,72.59
2019-01-28T09:10:42.234Z,73.04
2019-01-28T09:13:13.890Z,74.01
2019-01-28T09:15:45.512Z,73.85
2019-01-28T09:18:17.939Z,74.14
2019-01-28T09:20:49.593Z,74.54
2019-01-28T09:23:21.418Z,74.24
2019-01-28T09:25:52.990Z,73.71
2019-01-28T09:28:26.025Z,73.56
2019-01-28T09:30:57.669Z,72.87
2019-01-28T09:33:29.320Z,72.02
2019-01-28T09:36:00.877Z,72.82
2019-01-28T09:38:32.723Z,72.35
2019-01-28T09:41:04.616Z,72.46
2019-01-28T09:43:36.267Z,71.80
2019-01-28T09:46:07.840Z,71.80
2019-01-28T09:48:39.476Z,71.96
2019-01-28T09:51:11.069Z,72.30
2019-01-28T09:53:42.693Z,71.82
2019-01-28T09:56:14.344Z,72.19
2019-01-28T09:58:45.984Z,73.34
2019-01-28T10:01:17.567Z,72.30
2019-01-28T10:03:49.367Z,72.16
2019-01-28T10:06:22.387Z,71.32
2019-01-28T10:08:54.304Z,70.91
2019-01-28T10:11:25.966Z,70.25
2019-01-28T10:13:57.577Z,70.54
2019-01-28T10:16:29.231Z,70.11
2019-01-28T10:19:00.849Z,69.71
2019-01-28T10:21:32.488Z,69.69
2019-01-28T10:24:04.321Z,69.21
2019-01-28T10:26:35.970Z,67.93
2019-01-28T10:29:07.537Z,67.04
2019-01-28T10:31:39.166Z,67.01
2019-01-28T10:34:10.792Z,66.33
2019-01-28T10:36:42.526Z,66.50
2019-01-28T10:39:14.140Z,67.04
2019-01-28T10:41:45.808Z,67.02
2019-01-28T10:44:17.414Z,67.02
2019-01-28T10:46:49.348Z,66.60
2019-01-28T10:49:21.406Z,66.25
2019-01-28T10:51:53.044Z,66.01
2019-01-28T10:54:24.686Z,65.79
2019-01-28T10:56:56.334Z,65.00
2019-01-28T10:59:27.958Z,65.34
2019-01-28T11:02:01.069Z,65.56
2019-01-28T11:04:32.690Z,66.01
2019-01-28T11:07:04.327Z,66.48
2019-01-28T11:09:35.967Z,66.45
2019-01-28T11:12:07.716Z,67.00
2019-01-28T11:14:39.325Z,67.29
2019-01-28T11:17:12.165Z,67.46
2019-01-28T11:19:44.127Z,66.94
2019-01-28T11:22:15.723Z,67.42
2019-01-28T11:24:47.504Z,67.45
2019-01-28T11:27:19.455Z,67.77
2019-01-28T11:29:51.520Z,67.78
2019-01-28T11:32:23.113Z,68.44
2019-01-28T11:34:54.930Z,68.96
2019-01-28T11:37:26.672Z,69.45
2019-01-28T11:39:58.321Z,69.20
2019-01-28T11:42:30.107Z,68.66
2019-01-28T11:45:01.763Z,67.77
2019-01-28T11:47:33.943Z,67.70
2019-01-28T11:50:05.785Z,67.60
2019-01-28T11:52:37.419Z,66.89
2019-01-28T11:55:09.084Z,66.46
2019-01-28T11:57:40.727Z,66.75
2019-01-28T12:00:21.131Z,66.76
2019-01-28T12:02:52.760Z,66.22
2019-01-28T12:05:24.311Z,66.31
2019-01-28T12:07:55.985Z,67.02
2019-01-28T12:10:27.541Z,66.90
2019-01-28T12:12:59.224Z,66.96
2019-01-28T12:15:30.857Z,66.83
2019-01-28T12:18:02.501Z,67.02
2019-01-28T12:20:34.080Z,67.24
2019-01-28T12:23:05.766Z,67.41
2019-01-28T12:25:37.376Z,67.20
2019-01-28T12:28:08.976Z,67.71
2019-01-28T12:30:40.596Z,67.28
2019-01-28T12:33:12.255Z,66.95
2019-01-28T12:35:43.898Z,66.42
2019-01-28T12:38:15.516Z,66.19
2019-01-28T12:40:47.504Z,66.28
2019-01-28T12:43:19.457Z,66.01
2019-01-28T12:45:51.439Z,65.70
2019-01-28T12:48:23.308Z,65.88
2019-01-28T12:50:55.015Z,65.26
2019-01-28T12:53:26.589Z,65.00
2019-01-28T12:55:58.148Z,64.63
2019-01-28T12:58:29.686Z,64.50
2019-01-28T13:01:03.801Z,64.88
2019-01-28T13:03:35.450Z,64.75
2019-01-28T13:06:07.090Z,65.09
2019-01-28T13:08:38.728Z,65.24
2019-01-28T13:11:10.377Z,65.42
2019-01-28T13:13:41.956Z,65.33
2019-01-28T13:16:13.513Z,64.95
2019-01-28T13:18:45.105Z,65.66
2019-01-28T13:21:16.662Z,67.15
2019-01-28T13:23:48.510Z,69.26
2019-01-28T13:26:20.435Z,68.90
2019-01-28T13:28:52.365Z,69.03
2019-01-28T13:31:24.385Z,69.83
2019-01-28T13:33:55.969Z,69.24
2019-01-28T13:36:27.525Z,69.02
2019-01-28T13:38:59.161Z,69.56
2019-01-28T13:41:31.042Z,69.25
2019-01-28T13:44:02.656Z,69.41
2019-01-28T13:46:34.299Z,69.24
2019-01-28T13:49:05.954Z,69.67
2019-01-28T13:51:37.904Z,69.36
2019-01-28T13:54:09.474Z,69.58
2019-01-28T13:56:41.037Z,69.92
2019-01-28T13:59:16.501Z,70.41
2019-01-28T14:01:45.900Z,70.19
2019-01-28T14:04:18.462Z,70.47
2019-01-28T14:06:50.505Z,70.57
2019-01-28T14:09:22.372Z,71.00
2019-01-28T14:11:56.601Z,71.43
2019-01-28T14:14:29.053Z,71.87
2019-01-28T14:17:01.265Z,72.67
2019-01-28T14:19:33.214Z,72.69
2019-01-28T14:22:05.360Z,73.07
2019-01-28T14:24:37.865Z,73.03
2019-01-28T14:27:09.999Z,72.43
2019-01-28T14:29:42.255Z,72.80
2019-01-28T14:32:14.109Z,72.98
2019-01-28T14:34:54.101Z,73.10
2019-01-28T14:37:26.244Z,73.44
2019-01-28T14:39:58.379Z,73.54
2019-01-28T14:42:30.287Z,73.44
2019-01-28T14:45:02.794Z,72.95
2019-01-28T14:47:35.192Z,72.78
2019-01-28T14:50:09.611Z,72.58
2019-01-28T14:52:41.278Z,72.73
2019-01-28T14:55:12.931Z,73.27
2019-01-28T14:57:47.734Z,73.44
2019-01-28T15:00:22.802Z,73.38
2019-01-28T15:02:54.532Z,73.68
2019-01-28T15:05:26.688Z,73.92
2019-01-28T15:07:58.834Z,73.88
2019-01-28T15:10:32.105Z,73.67
2019-01-28T15:13:04.367Z,73.63
2019-01-28T15:15:37.644Z,73.56
2019-01-28T15:18:10.907Z,74.04
2019-01-28T15:20:44.101Z,73.89
2019-01-28T15:23:17.663Z,73.90
2019-01-28T15:25:52.180Z,73.90
2019-01-28T15:28:25.023Z,73.86
2019-01-28T15:30:57.658Z,73.76
2019-01-28T15:33:30.498Z,74.05
2019-01-28T15:36:03.153Z,74.43
2019-01-28T15:38:35.063Z,74.69
2019-01-28T15:41:17.593Z,74.73
2019-01-28T15:43:53.339Z,74.23
2019-01-28T15:46:26.996Z,74.56
2019-01-28T15:49:00.529Z,75.13
2019-01-28T15:51:33.029Z,75.23
2019-01-28T15:54:06.578Z,75.32
2019-01-28T15:56:39.099Z,75.74
2019-01-28T15:59:10.992Z,75.38
2019-01-28T16:01:43.885Z,75.31
2019-01-28T16:04:16.525Z,75.27
2019-01-28T16:06:53.880Z,75.38
2019-01-28T16:09:28.929Z,75.06
2019-01-28T16:12:00.156Z,75.23
2019-01-28T16:14:32.659Z,75.39
2019-01-28T16:17:04.307Z,75.54
2019-01-28T16:19:36.303Z,75.62
2019-01-28T16:22:08.475Z,75.57
2019-01-28T16:24:40.124Z,75.48
2019-01-28T16:27:13.382Z,75.67
2019-01-28T16:29:50.939Z,75.61
2019-01-28T16:32:25.410Z,75.86
2019-01-28T16:34:57.915Z,76.00
2019-01-28T16:37:31.711Z,75.98
2019-01-28T16:40:05.556Z,75.77
2019-01-28T16:42:37.809Z,75.79
2019-01-28T16:45:10.494Z,75.25
2019-01-28T16:47:42.153Z,75.26
2019-01-28T16:50:16.129Z,75.58
2019-01-28T16:52:47.968Z,75.73
2019-01-28T16:55:19.840Z,75.83
2019-01-28T16:57:51.790Z,76.30
2019-01-28T17:00:31.543Z,76.47
2019-01-28T17:03:03.194Z,76.67
2019-01-28T17:05:34.868Z,76.80
2019-01-28T17:08:06.562Z,76.88
2019-01-28T17:10:38.214Z,77.05
2019-01-28T17:13:10.286Z,77.10
2019-01-28T17:15:42.924Z,77.50
2019-01-28T17:18:14.657Z,77.99
2019-01-28T17:20:46.318Z,78.01
2019-01-28T17:23:18.033Z,78.39
2019-01-28T17:25:49.897Z,78.25
2019-01-28T17:28:21.794Z,78.00
2019-01-28T17:30:53.377Z,78.12
2019-01-28T17:33:25.037Z,78.18
2019-01-28T17:35:56.690Z,78.17
2019-01-28T17:38:28.379Z,78.28
2019-01-28T17:41:00.026Z,78.51
2019-01-28T17:43:31.711Z,78.57
2019-01-28T17:46:03.294Z,78.93
2019-01-28T17:48:36.433Z,78.92
2019-01-28T17:51:08.066Z,78.79
2019-01-28T17:53:39.771Z,78.62
2019-01-28T17:56:11.441Z,78.68
2019-01-28T17:58:43.119Z,78.86
2019-01-28T18:01:14.782Z,78.82
2019-01-28T18:03:46.801Z,78.77
2019-01-28T18:06:19.031Z,78.72
2019-01-28T18:08:51.866Z,78.71
2019-01-28T18:11:23.691Z,78.52
2019-01-28T18:13:55.435Z,78.91
2019-01-28T18:16:27.072Z,78.88
2019-01-28T18:18:58.946Z,78.76
2019-01-28T18:21:30.614Z,78.38
2019-01-28T18:24:02.792Z,78.57
2019-01-28T18:26:34.453Z,78.90
2019-01-28T18:29:06.364Z,78.71
2019-01-28T18:31:38.033Z,79.42
2019-01-28T18:34:09.910Z,79.50
2019-01-28T18:36:41.808Z,79.47
2019-01-28T18:39:13.815Z,79.32
2019-01-28T18:41:46.203Z,79.31
2019-01-28T18:44:18.120Z,79.27
2019-01-28T18:46:49.826Z,79.47
2019-01-28T18:49:22.169Z,79.52
2019-01-28T18:51:53.818Z,79.81
2019-01-28T18:54:25.587Z,79.82
2019-01-28T18:56:57.265Z,80.09
2019-01-28T18:59:28.955Z,80.16
2019-01-28T19:02:01.540Z,79.33
2019-01-28T19:04:33.875Z,80.05
2019-01-28T19:07:23.703Z,80.05
2019-01-28T19:10:03.361Z,79.88
2019-01-28T19:12:50.835Z,80.10
2019-01-28T19:15:50.793Z,80.30
2019-01-28T19:18:27.147Z,80.41
2019-01-28T19:21:08.145Z,80.68
2019-01-28T19:23:40.476Z,80.27
2019-01-28T19:26:12.190Z,80.37
2019-01-28T19:28:43.893Z,80.33
2019-01-28T19:31:15.608Z,80.04
2019-01-28T19:33:47.343Z,80.52
2019-01-28T19:36:19.291Z,80.53
2019-01-28T19:38:51.071Z,80.63
2019-01-28T19:41:22.845Z,80.82
2019-01-28T19:43:55.903Z,80.91
2019-01-28T19:46:27.607Z,80.30
2019-01-28T19:48:59.291Z,80.82
2019-01-28T19:51:31.031Z,80.84
2019-01-28T19:54:02.729Z,80.89
2019-01-28T19:56:34.463Z,80.42
2019-01-28T19:59:06.247Z,80.66
2019-01-28T20:01:37.976Z,81.16
2019-01-28T20:04:09.656Z,80.98
2019-01-28T20:06:41.369Z,81.25
2019-01-28T20:09:14.520Z,81.26
2019-01-28T20:11:46.409Z,81.08
2019-01-28T20:14:19.958Z,81.00
2019-01-28T20:16:52.289Z,80.24
2019-01-28T20:19:24.236Z,80.61
2019-01-28T20:21:58.329Z,80.94
2019-01-28T20:24:31.970Z,81.20
2019-01-28T20:27:03.575Z,80.70
2019-01-28T20:29:35.638Z,80.67
2019-01-28T20:32:07.624Z,80.78
2019-01-28T20:34:43.556Z,80.72
2019-01-28T20:37:12.723Z,80.69
2019-01-28T20:39:44.420Z,80.53
2019-01-28T20:42:16.100Z,80.58
2019-01-28T20:44:49.200Z,79.67
2019-01-28T20:47:23.644Z,80.08
2019-01-28T20:49:55.703Z,78.49
2019-01-28T20:52:27.461Z,79.30
2019-01-28T20:55:01.273Z,79.88
2019-01-28T20:57:33.134Z,79.53
2019-01-28T21:00:06.389Z,79.38
2019-01-28T21:02:38.458Z,79.71
2019-01-28T21:05:11.240Z,78.98
2019-01-28T21:07:43.324Z,79.57
2019-01-28T21:10:16.173Z,79.62
2019-01-28T21:12:48.345Z,79.55
2019-01-28T21:15:21.747Z,79.74
2019-01-28T21:17:53.455Z,79.84
2019-01-28T21:20:25.159Z,79.54
2019-01-28T21:22:59.105Z,79.28
2019-01-28T21:25:30.783Z,79.30
2019-01-28T21:28:02.474Z,79.44
2019-01-28T21:30:34.486Z,79.74
2019-01-28T21:33:06.172Z,79.91
2019-01-28T21:35:59.502Z,80.22
2019-01-28T21:38:35.921Z,79.68
2019-01-28T21:41:07.514Z,79.42
2019-01-28T21:43:40.184Z,79.36
2019-01-28T21:46:12.928Z,79.34
2019-01-28T21:48:44.620Z,79.04
2019-01-28T21:51:16.284Z,78.39
2019-01-28T21:53:48.198Z,78.91
2019-01-28T21:56:20.034Z,78.35
2019-01-28T21:58:52.189Z,77.16
2019-01-28T22:01:23.752Z,77.97
2019-01-28T22:03:55.373Z,78.35
2019-01-28T22:06:27.064Z,78.10
2019-01-28T22:08:58.659Z,77.78
2019-01-28T22:11:30.318Z,77.36
2019-01-28T22:14:01.910Z,77.00
2019-01-28T22:16:33.537Z,77.15
2019-01-28T22:19:05.123Z,77.16
2019-01-28T22:21:36.711Z,77.23
2019-01-28T22:24:08.364Z,76.73
2019-01-28T22:26:39.955Z,76.84
2019-01-28T22:29:11.561Z,76.66
2019-01-28T22:31:43.218Z,76.78
2019-01-28T22:34:14.890Z,76.63
2019-01-28T22:36:46.481Z,76.83
2019-01-28T22:39:18.197Z,76.90
2019-01-28T22:41:50.064Z,76.86
2019-01-28T22:44:22.008Z,76.45
2019-01-28T22:46:53.597Z,76.42
2019-01-28T22:49:25.247Z,76.47
2019-01-28T22:51:56.816Z,76.44
2019-01-28T22:54:28.403Z,76.20
2019-01-28T22:56:59.962Z,76.03
2019-01-28T22:59:31.635Z,76.00
2019-01-28T23:02:04.365Z,76.01
2019-01-28T23:04:36.067Z,76.02
2019-01-28T23:07:07.713Z,76.03
2019-01-28T23:09:39.307Z,76.26
2019-01-28T23:12:10.948Z,76.22
2019-01-28T23:14:42.606Z,76.07
2019-01-28T23:17:15.266Z,76.03
2019-01-28T23:19:46.931Z,75.93
2019-01-28T23:22:18.831Z,76.05
2019-01-28T23:24:50.428Z,75.95
2019-01-28T23:27:22.129Z,75.91
2019-01-28T23:29:54.955Z,75.74
2019-01-28T23:32:26.777Z,75.75
2019-01-28T23:34:58.438Z,75.80
2019-01-28T23:37:30.084Z,75.94
2019-01-28T23:40:01.688Z,75.57
2019-01-28T23:42:33.336Z,75.76
2019-01-28T23:45:04.922Z,75.73
2019-01-28T23:47:36.580Z,75.62
2019-01-28T23:50:08.305Z,75.43
2019-01-28T23:52:40.858Z,75.80
2019-01-28T23:55:12.524Z,75.73
2019-01-28T23:57:45.156Z,75.68
